Terminal Aerodrome Forecast
Issued by NWS Cleveland, OH

Home | Current Version | Previous Version | Text Only | Print | Product List | Glossary On
Versions: 1 2 3 4 5 6 7 8 9 10 11 12 13 14 15 16 17 18 19
000
FTUS41 KCLE 290532
TAFMFD
TAF
KMFD 290532Z 2906/3006 11005KT P6SM SCT250
     FM291500 19012G18KT P6SM BKN045
     FM292000 20012G20KT P6SM VCTS BKN045CB=

USA.gov is the U.S. government's official web portal to all federal, state and local government web resources and services.